sensor_id;sensor_type;location;lat;lon;timestamp;P1;durP1;ratioP1;P2;durP2;ratioP2
37943;SDS011;23767;42.024;23.086;2023-07-24T00:01:00;13.68;;;10.43;;
37943;SDS011;23767;42.024;23.086;2023-07-24T00:03:26;15.65;;;10.35;;
37943;SDS011;23767;42.024;23.086;2023-07-24T00:05:52;15.25;;;10.35;;
37943;SDS011;23767;42.024;23.086;2023-07-24T00:08:18;13.00;;;9.85;;
37943;SDS011;23767;42.024;23.086;2023-07-24T00:10:44;13.88;;;10.15;;
37943;SDS011;23767;42.024;23.086;2023-07-24T00:13:10;14.45;;;10.40;;
37943;SDS011;23767;42.024;23.086;2023-07-24T00:15:38;13.05;;;9.70;;
37943;SDS011;23767;42.024;23.086;2023-07-24T00:18:04;14.10;;;10.15;;
37943;SDS011;23767;42.024;23.086;2023-07-24T00:20:30;13.63;;;9.93;;
37943;SDS011;23767;42.024;23.086;2023-07-24T00:22:56;15.40;;;10.65;;
37943;SDS011;23767;42.024;23.086;2023-07-24T00:25:22;14.80;;;10.50;;
37943;SDS011;23767;42.024;23.086;2023-07-24T00:27:48;15.57;;;10.68;;
37943;SDS011;23767;42.024;23.086;2023-07-24T00:30:14;19.60;;;10.90;;
37943;SDS011;23767;42.024;23.086;2023-07-24T00:32:40;16.05;;;11.30;;
37943;SDS011;23767;42.024;23.086;2023-07-24T00:35:07;13.90;;;10.25;;
37943;SDS011;23767;42.024;23.086;2023-07-24T00:37:33;13.18;;;10.27;;
37943;SDS011;23767;42.024;23.086;2023-07-24T00:39:59;14.32;;;10.77;;
37943;SDS011;23767;42.024;23.086;2023-07-24T00:42:25;15.18;;;10.95;;
37943;SDS011;23767;42.024;23.086;2023-07-24T00:44:51;16.58;;;11.30;;
37943;SDS011;23767;42.024;23.086;2023-07-24T00:47:17;15.32;;;11.27;;
37943;SDS011;23767;42.024;23.086;2023-07-24T00:49:43;14.98;;;11.13;;
37943;SDS011;23767;42.024;23.086;2023-07-24T00:52:10;14.48;;;11.15;;
37943;SDS011;23767;42.024;23.086;2023-07-24T00:54:36;13.50;;;10.70;;
37943;SDS011;23767;42.024;23.086;2023-07-24T00:57:03;14.45;;;10.70;;
37943;SDS011;23767;42.024;23.086;2023-07-24T00:59:30;15.73;;;10.43;;
37943;SDS011;23767;42.024;23.086;2023-07-24T01:01:56;15.00;;;10.73;;
37943;SDS011;23767;42.024;23.086;2023-07-24T01:04:22;14.88;;;11.07;;
37943;SDS011;23767;42.024;23.086;2023-07-24T01:06:48;16.23;;;11.10;;
37943;SDS011;23767;42.024;23.086;2023-07-24T01:09:15;15.05;;;11.10;;
37943;SDS011;23767;42.024;23.086;2023-07-24T01:11:44;14.65;;;11.02;;
37943;SDS011;23767;42.024;23.086;2023-07-24T01:14:55;17.55;;;11.85;;
37943;SDS011;23767;42.024;23.086;2023-07-24T01:17:02;16.67;;;10.82;;
37943;SDS011;23767;42.024;23.086;2023-07-24T01:19:37;14.15;;;10.52;;
37943;SDS011;23767;42.024;23.086;2023-07-24T01:24:47;15.10;;;10.77;;
37943;SDS011;23767;42.024;23.086;2023-07-24T01:27:20;13.40;;;10.20;;
37943;SDS011;23767;42.024;23.086;2023-07-24T01:29:46;13.57;;;10.35;;
37943;SDS011;23767;42.024;23.086;2023-07-24T01:32:12;15.65;;;10.30;;
37943;SDS011;23767;42.024;23.086;2023-07-24T01:34:38;16.92;;;10.93;;
37943;SDS011;23767;42.024;23.086;2023-07-24T01:37:04;13.82;;;9.70;;
37943;SDS011;23767;42.024;23.086;2023-07-24T01:39:30;17.55;;;11.13;;
37943;SDS011;23767;42.024;23.086;2023-07-24T01:41:56;17.08;;;12.05;;
37943;SDS011;23767;42.024;23.086;2023-07-24T01:44:23;16.02;;;11.52;;
37943;SDS011;23767;42.024;23.086;2023-07-24T01:46:49;16.63;;;12.05;;
37943;SDS011;23767;42.024;23.086;2023-07-24T01:49:15;16.30;;;11.90;;
37943;SDS011;23767;42.024;23.086;2023-07-24T01:51:41;16.00;;;11.70;;
37943;SDS011;23767;42.024;23.086;2023-07-24T01:54:07;17.08;;;11.40;;
37943;SDS011;23767;42.024;23.086;2023-07-24T01:56:35;16.45;;;11.27;;
37943;SDS011;23767;42.024;23.086;2023-07-24T01:59:01;21.42;;;12.27;;
37943;SDS011;23767;42.024;23.086;2023-07-24T02:01:27;17.05;;;11.25;;
37943;SDS011;23767;42.024;23.086;2023-07-24T02:03:53;14.88;;;10.88;;
37943;SDS011;23767;42.024;23.086;2023-07-24T02:06:19;13.50;;;10.35;;
37943;SDS011;23767;42.024;23.086;2023-07-24T02:08:45;16.73;;;11.10;;
37943;SDS011;23767;42.024;23.086;2023-07-24T02:11:16;14.25;;;11.02;;
37943;SDS011;23767;42.024;23.086;2023-07-24T02:13:45;16.00;;;11.23;;
37943;SDS011;23767;42.024;23.086;2023-07-24T02:16:12;15.07;;;10.77;;
37943;SDS011;23767;42.024;23.086;2023-07-24T02:18:40;17.38;;;11.43;;
37943;SDS011;23767;42.024;23.086;2023-07-24T02:21:06;15.40;;;10.75;;
37943;SDS011;23767;42.024;23.086;2023-07-24T02:23:32;16.27;;;11.25;;
37943;SDS011;23767;42.024;23.086;2023-07-24T02:25:58;15.25;;;11.00;;
37943;SDS011;23767;42.024;23.086;2023-07-24T02:28:24;16.75;;;11.70;;
37943;SDS011;23767;42.024;23.086;2023-07-24T02:30:50;16.38;;;11.52;;
37943;SDS011;23767;42.024;23.086;2023-07-24T02:33:17;15.13;;;11.50;;
37943;SDS011;23767;42.024;23.086;2023-07-24T02:35:43;14.32;;;10.02;;
37943;SDS011;23767;42.024;23.086;2023-07-24T02:38:09;14.95;;;10.55;;
37943;SDS011;23767;42.024;23.086;2023-07-24T02:40:35;16.98;;;11.77;;
37943;SDS011;23767;42.024;23.086;2023-07-24T02:43:01;15.40;;;11.07;;
37943;SDS011;23767;42.024;23.086;2023-07-24T02:45:27;14.65;;;10.57;;
37943;SDS011;23767;42.024;23.086;2023-07-24T02:47:53;19.00;;;11.27;;
37943;SDS011;23767;42.024;23.086;2023-07-24T02:50:19;14.70;;;10.80;;
37943;SDS011;23767;42.024;23.086;2023-07-24T02:52:45;15.45;;;11.05;;
37943;SDS011;23767;42.024;23.086;2023-07-24T02:55:11;14.45;;;11.23;;
37943;SDS011;23767;42.024;23.086;2023-07-24T02:57:37;17.15;;;11.25;;
37943;SDS011;23767;42.024;23.086;2023-07-24T03:00:04;13.88;;;10.32;;
37943;SDS011;23767;42.024;23.086;2023-07-24T03:02:30;15.00;;;11.18;;
37943;SDS011;23767;42.024;23.086;2023-07-24T03:04:56;15.77;;;11.13;;
37943;SDS011;23767;42.024;23.086;2023-07-24T03:07:22;15.60;;;10.95;;
37943;SDS011;23767;42.024;23.086;2023-07-24T03:09:48;14.55;;;10.63;;
37943;SDS011;23767;42.024;23.086;2023-07-24T03:12:16;14.70;;;10.27;;
37943;SDS011;23767;42.024;23.086;2023-07-24T03:14:42;15.45;;;10.70;;
37943;SDS011;23767;42.024;23.086;2023-07-24T03:17:08;15.13;;;11.15;;
37943;SDS011;23767;42.024;23.086;2023-07-24T03:19:34;15.68;;;11.48;;
37943;SDS011;23767;42.024;23.086;2023-07-24T03:22:00;14.90;;;11.30;;
37943;SDS011;23767;42.024;23.086;2023-07-24T03:24:26;14.50;;;11.00;;
37943;SDS011;23767;42.024;23.086;2023-07-24T03:26:53;15.18;;;11.10;;
37943;SDS011;23767;42.024;23.086;2023-07-24T03:29:19;15.13;;;10.85;;
37943;SDS011;23767;42.024;23.086;2023-07-24T03:31:45;14.88;;;10.70;;
37943;SDS011;23767;42.024;23.086;2023-07-24T03:34:10;14.90;;;10.77;;
37943;SDS011;23767;42.024;23.086;2023-07-24T03:36:37;14.18;;;10.40;;
37943;SDS011;23767;42.024;23.086;2023-07-24T03:39:06;14.77;;;10.00;;
37943;SDS011;23767;42.024;23.086;2023-07-24T03:41:32;14.63;;;10.32;;
37943;SDS011;23767;42.024;23.086;2023-07-24T03:43:58;15.82;;;10.70;;
37943;SDS011;23767;42.024;23.086;2023-07-24T03:46:24;14.70;;;10.63;;
37943;SDS011;23767;42.024;23.086;2023-07-24T03:48:50;16.17;;;10.88;;
37943;SDS011;23767;42.024;23.086;2023-07-24T03:51:16;15.93;;;10.25;;
37943;SDS011;23767;42.024;23.086;2023-07-24T03:53:42;15.27;;;11.05;;
37943;SDS011;23767;42.024;23.086;2023-07-24T03:56:09;15.75;;;11.55;;
37943;SDS011;23767;42.024;23.086;2023-07-24T03:58:35;16.35;;;10.93;;
37943;SDS011;23767;42.024;23.086;2023-07-24T04:01:01;17.52;;;11.93;;
37943;SDS011;23767;42.024;23.086;2023-07-24T04:03:26;15.85;;;10.90;;
37943;SDS011;23767;42.024;23.086;2023-07-24T04:05:52;15.63;;;11.32;;
37943;SDS011;23767;42.024;23.086;2023-07-24T04:08:19;14.65;;;10.82;;
37943;SDS011;23767;42.024;23.086;2023-07-24T04:10:45;16.85;;;10.90;;
37943;SDS011;23767;42.024;23.086;2023-07-24T04:13:11;14.40;;;10.55;;
37943;SDS011;23767;42.024;23.086;2023-07-24T04:15:37;13.55;;;10.43;;
37943;SDS011;23767;42.024;23.086;2023-07-24T04:18:04;14.48;;;9.80;;
37943;SDS011;23767;42.024;23.086;2023-07-24T04:20:30;15.52;;;10.77;;
37943;SDS011;23767;42.024;23.086;2023-07-24T04:22:56;18.83;;;10.80;;
37943;SDS011;23767;42.024;23.086;2023-07-24T04:25:22;15.85;;;10.95;;
37943;SDS011;23767;42.024;23.086;2023-07-24T04:27:48;17.95;;;11.32;;
37943;SDS011;23767;42.024;23.086;2023-07-24T04:30:14;18.38;;;11.63;;
37943;SDS011;23767;42.024;23.086;2023-07-24T04:32:41;19.00;;;11.95;;
37943;SDS011;23767;42.024;23.086;2023-07-24T04:35:07;19.35;;;11.88;;
37943;SDS011;23767;42.024;23.086;2023-07-24T04:37:33;16.90;;;11.40;;
37943;SDS011;23767;42.024;23.086;2023-07-24T04:39:59;17.70;;;12.05;;
37943;SDS011;23767;42.024;23.086;2023-07-24T04:42:25;18.98;;;11.68;;
37943;SDS011;23767;42.024;23.086;2023-07-24T04:44:51;15.93;;;11.35;;
37943;SDS011;23767;42.024;23.086;2023-07-24T04:47:17;20.42;;;12.15;;
37943;SDS011;23767;42.024;23.086;2023-07-24T04:49:43;19.77;;;12.90;;
37943;SDS011;23767;42.024;23.086;2023-07-24T04:52:09;18.83;;;13.02;;
37943;SDS011;23767;42.024;23.086;2023-07-24T04:54:35;18.05;;;12.90;;
37943;SDS011;23767;42.024;23.086;2023-07-24T04:57:01;18.13;;;12.45;;
37943;SDS011;23767;42.024;23.086;2023-07-24T04:59:27;15.75;;;11.35;;
37943;SDS011;23767;42.024;23.086;2023-07-24T05:01:53;17.83;;;11.45;;
37943;SDS011;23767;42.024;23.086;2023-07-24T05:04:21;16.38;;;11.55;;
37943;SDS011;23767;42.024;23.086;2023-07-24T05:06:47;16.73;;;11.70;;
37943;SDS011;23767;42.024;23.086;2023-07-24T05:09:13;18.65;;;12.52;;
37943;SDS011;23767;42.024;23.086;2023-07-24T05:11:39;17.88;;;12.27;;
37943;SDS011;23767;42.024;23.086;2023-07-24T05:14:07;16.95;;;12.10;;
37943;SDS011;23767;42.024;23.086;2023-07-24T05:16:33;19.40;;;12.48;;
37943;SDS011;23767;42.024;23.086;2023-07-24T05:18:59;18.13;;;12.32;;
37943;SDS011;23767;42.024;23.086;2023-07-24T05:21:25;17.08;;;12.13;;
37943;SDS011;23767;42.024;23.086;2023-07-24T05:23:51;18.15;;;12.15;;
37943;SDS011;23767;42.024;23.086;2023-07-24T05:26:17;18.08;;;12.27;;
37943;SDS011;23767;42.024;23.086;2023-07-24T05:28:43;19.60;;;12.35;;
37943;SDS011;23767;42.024;23.086;2023-07-24T05:31:09;17.63;;;11.75;;
37943;SDS011;23767;42.024;23.086;2023-07-24T05:33:35;15.35;;;11.68;;
37943;SDS011;23767;42.024;23.086;2023-07-24T05:36:01;19.55;;;12.93;;
37943;SDS011;23767;42.024;23.086;2023-07-24T05:38:28;19.23;;;11.85;;
37943;SDS011;23767;42.024;23.086;2023-07-24T05:40:55;16.75;;;12.20;;
37943;SDS011;23767;42.024;23.086;2023-07-24T05:43:21;21.88;;;12.13;;
37943;SDS011;23767;42.024;23.086;2023-07-24T05:45:47;18.00;;;11.25;;
37943;SDS011;23767;42.024;23.086;2023-07-24T05:48:13;15.73;;;11.57;;
37943;SDS011;23767;42.024;23.086;2023-07-24T05:50:39;16.25;;;12.00;;
37943;SDS011;23767;42.024;23.086;2023-07-24T05:53:06;18.52;;;11.70;;
37943;SDS011;23767;42.024;23.086;2023-07-24T05:55:32;19.67;;;12.27;;
37943;SDS011;23767;42.024;23.086;2023-07-24T05:57:58;16.83;;;12.93;;
37943;SDS011;23767;42.024;23.086;2023-07-24T06:00:24;17.42;;;12.13;;
37943;SDS011;23767;42.024;23.086;2023-07-24T06:02:50;23.10;;;12.32;;
37943;SDS011;23767;42.024;23.086;2023-07-24T06:05:16;14.85;;;11.35;;
37943;SDS011;23767;42.024;23.086;2023-07-24T06:07:42;16.00;;;11.15;;
37943;SDS011;23767;42.024;23.086;2023-07-24T06:10:08;17.90;;;11.85;;
37943;SDS011;23767;42.024;23.086;2023-07-24T06:12:34;20.85;;;12.48;;
37943;SDS011;23767;42.024;23.086;2023-07-24T06:15:00;16.75;;;11.85;;
37943;SDS011;23767;42.024;23.086;2023-07-24T06:17:26;17.80;;;11.90;;
37943;SDS011;23767;42.024;23.086;2023-07-24T06:19:52;16.52;;;11.88;;
37943;SDS011;23767;42.024;23.086;2023-07-24T06:22:18;19.33;;;12.35;;
37943;SDS011;23767;42.024;23.086;2023-07-24T06:24:44;17.88;;;11.80;;
37943;SDS011;23767;42.024;23.086;2023-07-24T06:27:10;17.67;;;11.80;;
37943;SDS011;23767;42.024;23.086;2023-07-24T06:29:36;16.52;;;11.68;;
37943;SDS011;23767;42.024;23.086;2023-07-24T06:32:03;17.20;;;12.50;;
37943;SDS011;23767;42.024;23.086;2023-07-24T06:34:29;19.20;;;13.10;;
37943;SDS011;23767;42.024;23.086;2023-07-24T06:36:55;18.92;;;11.45;;
37943;SDS011;23767;42.024;23.086;2023-07-24T06:39:21;16.85;;;13.02;;
37943;SDS011;23767;42.024;23.086;2023-07-24T06:41:47;16.33;;;12.45;;
37943;SDS011;23767;42.024;23.086;2023-07-24T06:44:13;18.13;;;12.23;;
37943;SDS011;23767;42.024;23.086;2023-07-24T06:46:39;17.15;;;12.07;;
37943;SDS011;23767;42.024;23.086;2023-07-24T06:49:05;21.13;;;12.70;;
37943;SDS011;23767;42.024;23.086;2023-07-24T06:51:31;15.75;;;11.15;;
37943;SDS011;23767;42.024;23.086;2023-07-24T06:53:57;17.65;;;11.93;;
37943;SDS011;23767;42.024;23.086;2023-07-24T06:56:23;18.50;;;12.60;;
37943;SDS011;23767;42.024;23.086;2023-07-24T06:58:49;19.20;;;12.45;;
37943;SDS011;23767;42.024;23.086;2023-07-24T07:01:15;19.08;;;12.73;;
37943;SDS011;23767;42.024;23.086;2023-07-24T07:03:41;18.63;;;11.93;;
37943;SDS011;23767;42.024;23.086;2023-07-24T07:06:07;19.02;;;11.85;;
37943;SDS011;23767;42.024;23.086;2023-07-24T07:08:35;20.98;;;12.48;;
37943;SDS011;23767;42.024;23.086;2023-07-24T07:11:01;16.92;;;12.55;;
37943;SDS011;23767;42.024;23.086;2023-07-24T07:13:27;23.42;;;11.95;;
37943;SDS011;23767;42.024;23.086;2023-07-24T07:15:53;18.75;;;11.77;;
37943;SDS011;23767;42.024;23.086;2023-07-24T07:18:19;15.05;;;11.30;;
37943;SDS011;23767;42.024;23.086;2023-07-24T07:20:46;16.27;;;11.82;;
37943;SDS011;23767;42.024;23.086;2023-07-24T07:23:12;17.25;;;11.45;;
37943;SDS011;23767;42.024;23.086;2023-07-24T07:25:38;14.77;;;10.85;;
37943;SDS011;23767;42.024;23.086;2023-07-24T07:28:04;17.35;;;11.45;;
37943;SDS011;23767;42.024;23.086;2023-07-24T07:30:30;22.92;;;11.90;;
37943;SDS011;23767;42.024;23.086;2023-07-24T07:32:56;15.55;;;11.32;;
37943;SDS011;23767;42.024;23.086;2023-07-24T07:35:22;18.58;;;11.82;;
37943;SDS011;23767;42.024;23.086;2023-07-24T07:37:48;17.73;;;10.90;;
37943;SDS011;23767;42.024;23.086;2023-07-24T07:40:14;17.98;;;11.32;;
37943;SDS011;23767;42.024;23.086;2023-07-24T07:42:40;17.88;;;11.32;;
37943;SDS011;23767;42.024;23.086;2023-07-24T07:45:07;17.35;;;11.85;;
37943;SDS011;23767;42.024;23.086;2023-07-24T07:47:33;14.20;;;10.75;;
37943;SDS011;23767;42.024;23.086;2023-07-24T07:49:59;15.32;;;11.68;;
37943;SDS011;23767;42.024;23.086;2023-07-24T07:52:25;17.85;;;11.45;;
37943;SDS011;23767;42.024;23.086;2023-07-24T07:54:51;17.15;;;11.15;;
37943;SDS011;23767;42.024;23.086;2023-07-24T07:57:17;15.60;;;11.25;;
37943;SDS011;23767;42.024;23.086;2023-07-24T07:59:43;15.40;;;10.75;;
37943;SDS011;23767;42.024;23.086;2023-07-24T08:02:09;15.85;;;11.95;;
37943;SDS011;23767;42.024;23.086;2023-07-24T08:04:35;12.52;;;10.35;;
37943;SDS011;23767;42.024;23.086;2023-07-24T08:07:01;17.55;;;11.30;;
37943;SDS011;23767;42.024;23.086;2023-07-24T08:09:27;17.65;;;11.48;;
37943;SDS011;23767;42.024;23.086;2023-07-24T08:11:53;15.80;;;11.20;;
37943;SDS011;23767;42.024;23.086;2023-07-24T08:14:19;18.58;;;11.55;;
37943;SDS011;23767;42.024;23.086;2023-07-24T08:16:48;14.65;;;11.20;;
37943;SDS011;23767;42.024;23.086;2023-07-24T08:19:15;16.95;;;11.68;;
37943;SDS011;23767;42.024;23.086;2023-07-24T08:21:41;13.68;;;10.77;;
37943;SDS011;23767;42.024;23.086;2023-07-24T08:24:07;14.23;;;10.93;;
37943;SDS011;23767;42.024;23.086;2023-07-24T08:26:33;13.30;;;11.00;;
37943;SDS011;23767;42.024;23.086;2023-07-24T08:28:59;15.30;;;10.75;;
37943;SDS011;23767;42.024;23.086;2023-07-24T08:31:25;16.80;;;10.80;;
37943;SDS011;23767;42.024;23.086;2023-07-24T08:33:51;15.32;;;10.90;;
37943;SDS011;23767;42.024;23.086;2023-07-24T08:36:18;14.88;;;10.85;;
37943;SDS011;23767;42.024;23.086;2023-07-24T08:38:44;13.32;;;10.27;;
37943;SDS011;23767;42.024;23.086;2023-07-24T08:41:10;13.02;;;10.23;;
37943;SDS011;23767;42.024;23.086;2023-07-24T08:43:37;12.50;;;9.70;;
37943;SDS011;23767;42.024;23.086;2023-07-24T08:46:04;14.93;;;10.07;;
37943;SDS011;23767;42.024;23.086;2023-07-24T08:48:32;12.50;;;9.45;;
37943;SDS011;23767;42.024;23.086;2023-07-24T08:51:04;14.93;;;10.10;;
37943;SDS011;23767;42.024;23.086;2023-07-24T08:53:30;16.30;;;10.85;;
37943;SDS011;23767;42.024;23.086;2023-07-24T08:55:59;14.13;;;10.05;;
37943;SDS011;23767;42.024;23.086;2023-07-24T08:58:25;16.58;;;11.00;;
37943;SDS011;23767;42.024;23.086;2023-07-24T09:00:51;15.23;;;9.70;;
37943;SDS011;23767;42.024;23.086;2023-07-24T09:03:20;18.02;;;10.68;;
37943;SDS011;23767;42.024;23.086;2023-07-24T09:05:46;13.57;;;10.43;;
37943;SDS011;23767;42.024;23.086;2023-07-24T09:08:12;15.88;;;10.73;;
37943;SDS011;23767;42.024;23.086;2023-07-24T09:10:39;15.73;;;11.13;;
37943;SDS011;23767;42.024;23.086;2023-07-24T09:13:05;17.08;;;11.85;;
37943;SDS011;23767;42.024;23.086;2023-07-24T09:15:41;16.85;;;11.18;;
37943;SDS011;23767;42.024;23.086;2023-07-24T09:18:07;15.23;;;11.48;;
37943;SDS011;23767;42.024;23.086;2023-07-24T09:20:40;16.38;;;12.18;;
37943;SDS011;23767;42.024;23.086;2023-07-24T09:23:07;14.07;;;11.27;;
37943;SDS011;23767;42.024;23.086;2023-07-24T09:25:34;14.68;;;12.73;;
37943;SDS011;23767;42.024;23.086;2023-07-24T09:28:00;16.45;;;12.25;;
37943;SDS011;23767;42.024;23.086;2023-07-24T09:30:26;14.77;;;11.95;;
37943;SDS011;23767;42.024;23.086;2023-07-24T09:32:53;15.18;;;12.05;;
37943;SDS011;23767;42.024;23.086;2023-07-24T09:35:19;14.98;;;12.45;;
37943;SDS011;23767;42.024;23.086;2023-07-24T09:37:46;13.85;;;11.20;;
37943;SDS011;23767;42.024;23.086;2023-07-24T09:40:13;15.48;;;11.18;;
37943;SDS011;23767;42.024;23.086;2023-07-24T09:42:40;14.48;;;11.45;;
37943;SDS011;23767;42.024;23.086;2023-07-24T09:45:06;14.00;;;11.15;;
37943;SDS011;23767;42.024;23.086;2023-07-24T09:47:33;12.52;;;10.55;;
37943;SDS011;23767;42.024;23.086;2023-07-24T09:50:02;12.98;;;10.40;;
37943;SDS011;23767;42.024;23.086;2023-07-24T09:52:29;14.85;;;11.00;;
37943;SDS011;23767;42.024;23.086;2023-07-24T09:57:24;14.00;;;10.40;;
37943;SDS011;23767;42.024;23.086;2023-07-24T09:59:51;13.25;;;10.40;;
37943;SDS011;23767;42.024;23.086;2023-07-24T10:02:18;13.07;;;10.20;;
37943;SDS011;23767;42.024;23.086;2023-07-24T10:04:44;16.30;;;11.27;;
37943;SDS011;23767;42.024;23.086;2023-07-24T10:07:10;12.73;;;10.13;;
37943;SDS011;23767;42.024;23.086;2023-07-24T10:09:37;13.95;;;10.38;;
37943;SDS011;23767;42.024;23.086;2023-07-24T10:12:04;12.85;;;10.57;;
37943;SDS011;23767;42.024;23.086;2023-07-24T10:14:30;12.25;;;10.05;;
37943;SDS011;23767;42.024;23.086;2023-07-24T10:16:56;14.00;;;10.73;;
37943;SDS011;23767;42.024;23.086;2023-07-24T10:19:22;12.25;;;9.70;;
37943;SDS011;23767;42.024;23.086;2023-07-24T10:21:49;13.30;;;10.52;;
37943;SDS011;23767;42.024;23.086;2023-07-24T10:24:16;12.10;;;9.65;;
37943;SDS011;23767;42.024;23.086;2023-07-24T10:26:42;12.18;;;9.70;;
37943;SDS011;23767;42.024;23.086;2023-07-24T10:29:09;12.50;;;9.88;;
37943;SDS011;23767;42.024;23.086;2023-07-24T10:31:35;14.38;;;10.13;;
37943;SDS011;23767;42.024;23.086;2023-07-24T10:34:04;16.23;;;10.65;;
37943;SDS011;23767;42.024;23.086;2023-07-24T10:36:34;14.13;;;10.27;;
37943;SDS011;23767;42.024;23.086;2023-07-24T10:39:00;11.75;;;9.40;;
37943;SDS011;23767;42.024;23.086;2023-07-24T10:41:36;12.48;;;9.43;;
37943;SDS011;23767;42.024;23.086;2023-07-24T10:44:03;13.25;;;8.88;;
37943;SDS011;23767;42.024;23.086;2023-07-24T10:46:36;11.75;;;8.93;;
37943;SDS011;23767;42.024;23.086;2023-07-24T10:49:02;11.27;;;8.68;;
37943;SDS011;23767;42.024;23.086;2023-07-24T10:51:29;12.20;;;8.70;;
37943;SDS011;23767;42.024;23.086;2023-07-24T10:53:58;12.52;;;8.57;;
37943;SDS011;23767;42.024;23.086;2023-07-24T10:56:25;13.82;;;8.48;;
37943;SDS011;23767;42.024;23.086;2023-07-24T10:58:51;11.50;;;8.10;;
37943;SDS011;23767;42.024;23.086;2023-07-24T11:01:17;9.98;;;7.40;;
37943;SDS011;23767;42.024;23.086;2023-07-24T11:03:43;11.52;;;6.88;;
37943;SDS011;23767;42.024;23.086;2023-07-24T11:06:14;10.48;;;7.05;;
37943;SDS011;23767;42.024;23.086;2023-07-24T11:08:40;9.98;;;7.18;;
37943;SDS011;23767;42.024;23.086;2023-07-24T11:11:07;12.18;;;7.35;;
37943;SDS011;23767;42.024;23.086;2023-07-24T11:13:33;10.35;;;6.78;;
37943;SDS011;23767;42.024;23.086;2023-07-24T11:16:06;10.77;;;7.00;;
37943;SDS011;23767;42.024;23.086;2023-07-24T11:18:32;11.30;;;7.18;;
37943;SDS011;23767;42.024;23.086;2023-07-24T11:20:58;9.20;;;7.00;;
37943;SDS011;23767;42.024;23.086;2023-07-24T11:23:24;11.75;;;7.50;;
37943;SDS011;23767;42.024;23.086;2023-07-24T11:25:51;9.20;;;6.85;;
37943;SDS011;23767;42.024;23.086;2023-07-24T11:28:18;9.82;;;7.07;;
37943;SDS011;23767;42.024;23.086;2023-07-24T11:30:44;10.57;;;7.13;;
37943;SDS011;23767;42.024;23.086;2023-07-24T11:33:10;12.23;;;7.18;;
37943;SDS011;23767;42.024;23.086;2023-07-24T11:35:36;11.20;;;6.63;;
37943;SDS011;23767;42.024;23.086;2023-07-24T11:38:09;11.75;;;6.43;;
37943;SDS011;23767;42.024;23.086;2023-07-24T11:40:36;9.95;;;6.80;;
37943;SDS011;23767;42.024;23.086;2023-07-24T11:43:03;10.05;;;6.30;;
37943;SDS011;23767;42.024;23.086;2023-07-24T11:45:30;12.60;;;6.80;;
37943;SDS011;23767;42.024;23.086;2023-07-24T11:47:56;13.07;;;6.93;;
37943;SDS011;23767;42.024;23.086;2023-07-24T11:50:23;12.27;;;6.70;;
37943;SDS011;23767;42.024;23.086;2023-07-24T11:52:50;12.60;;;6.90;;
37943;SDS011;23767;42.024;23.086;2023-07-24T11:55:17;13.35;;;7.10;;
37943;SDS011;23767;42.024;23.086;2023-07-24T11:57:54;8.70;;;6.57;;
37943;SDS011;23767;42.024;23.086;2023-07-24T12:00:21;8.85;;;6.03;;
37943;SDS011;23767;42.024;23.086;2023-07-24T12:02:47;8.45;;;6.30;;
37943;SDS011;23767;42.024;23.086;2023-07-24T12:05:13;8.50;;;6.00;;
37943;SDS011;23767;42.024;23.086;2023-07-24T12:07:39;9.70;;;6.22;;
37943;SDS011;23767;42.024;23.086;2023-07-24T12:10:08;9.13;;;6.05;;
37943;SDS011;23767;42.024;23.086;2023-07-24T12:12:44;10.50;;;6.43;;
37943;SDS011;23767;42.024;23.086;2023-07-24T12:15:11;13.85;;;6.63;;
37943;SDS011;23767;42.024;23.086;2023-07-24T12:17:38;9.15;;;6.20;;
37943;SDS011;23767;42.024;23.086;2023-07-24T12:20:04;11.18;;;5.95;;
37943;SDS011;23767;42.024;23.086;2023-07-24T12:22:34;9.93;;;6.35;;
37943;SDS011;23767;42.024;23.086;2023-07-24T12:25:01;11.60;;;6.50;;
37943;SDS011;23767;42.024;23.086;2023-07-24T12:27:27;12.77;;;7.00;;
37943;SDS011;23767;42.024;23.086;2023-07-24T12:29:53;10.57;;;6.30;;
37943;SDS011;23767;42.024;23.086;2023-07-24T12:32:19;12.25;;;6.00;;
37943;SDS011;23767;42.024;23.086;2023-07-24T12:34:47;9.63;;;6.00;;
37943;SDS011;23767;42.024;23.086;2023-07-24T12:37:13;13.15;;;6.22;;
37943;SDS011;23767;42.024;23.086;2023-07-24T12:39:39;10.45;;;5.93;;
37943;SDS011;23767;42.024;23.086;2023-07-24T12:42:05;8.95;;;6.18;;
37943;SDS011;23767;42.024;23.086;2023-07-24T12:44:32;8.52;;;6.30;;
37943;SDS011;23767;42.024;23.086;2023-07-24T12:46:58;9.95;;;6.72;;
37943;SDS011;23767;42.024;23.086;2023-07-24T12:49:24;12.82;;;6.43;;
37943;SDS011;23767;42.024;23.086;2023-07-24T12:51:50;9.88;;;6.88;;
37943;SDS011;23767;42.024;23.086;2023-07-24T12:54:16;10.52;;;7.18;;
37943;SDS011;23767;42.024;23.086;2023-07-24T12:56:45;11.82;;;6.32;;
37943;SDS011;23767;42.024;23.086;2023-07-24T12:59:11;8.73;;;6.22;;
37943;SDS011;23767;42.024;23.086;2023-07-24T13:01:37;11.93;;;6.35;;
37943;SDS011;23767;42.024;23.086;2023-07-24T13:04:03;11.15;;;7.10;;
37943;SDS011;23767;42.024;23.086;2023-07-24T13:06:29;9.10;;;6.70;;
37943;SDS011;23767;42.024;23.086;2023-07-24T13:08:55;10.77;;;6.70;;
37943;SDS011;23767;42.024;23.086;2023-07-24T13:11:21;10.18;;;6.30;;
37943;SDS011;23767;42.024;23.086;2023-07-24T13:13:47;10.52;;;6.22;;
37943;SDS011;23767;42.024;23.086;2023-07-24T13:16:15;10.88;;;6.47;;
37943;SDS011;23767;42.024;23.086;2023-07-24T13:18:41;8.73;;;6.22;;
37943;SDS011;23767;42.024;23.086;2023-07-24T13:21:07;10.50;;;6.45;;
37943;SDS011;23767;42.024;23.086;2023-07-24T13:23:33;11.93;;;6.50;;
37943;SDS011;23767;42.024;23.086;2023-07-24T13:26:00;10.45;;;6.63;;
37943;SDS011;23767;42.024;23.086;2023-07-24T13:28:26;10.95;;;6.85;;
37943;SDS011;23767;42.024;23.086;2023-07-24T13:30:52;11.40;;;6.10;;
37943;SDS011;23767;42.024;23.086;2023-07-24T13:33:18;9.73;;;6.43;;
37943;SDS011;23767;42.024;23.086;2023-07-24T13:35:44;9.30;;;6.60;;
37943;SDS011;23767;42.024;23.086;2023-07-24T13:38:10;10.35;;;6.40;;
37943;SDS011;23767;42.024;23.086;2023-07-24T13:40:37;9.55;;;6.45;;
37943;SDS011;23767;42.024;23.086;2023-07-24T13:43:03;13.68;;;6.50;;
37943;SDS011;23767;42.024;23.086;2023-07-24T13:45:29;8.70;;;5.93;;
37943;SDS011;23767;42.024;23.086;2023-07-24T13:47:56;10.25;;;6.05;;
37943;SDS011;23767;42.024;23.086;2023-07-24T13:50:23;9.32;;;6.13;;
37943;SDS011;23767;42.024;23.086;2023-07-24T13:52:49;10.05;;;5.82;;
37943;SDS011;23767;42.024;23.086;2023-07-24T13:55:15;10.65;;;6.82;;
37943;SDS011;23767;42.024;23.086;2023-07-24T13:57:41;11.02;;;6.53;;
37943;SDS011;23767;42.024;23.086;2023-07-24T14:00:07;10.55;;;6.40;;
37943;SDS011;23767;42.024;23.086;2023-07-24T14:02:34;10.80;;;5.95;;
37943;SDS011;23767;42.024;23.086;2023-07-24T14:05:00;12.15;;;6.88;;
37943;SDS011;23767;42.024;23.086;2023-07-24T14:07:26;11.88;;;6.90;;
37943;SDS011;23767;42.024;23.086;2023-07-24T14:09:52;12.00;;;6.90;;
37943;SDS011;23767;42.024;23.086;2023-07-24T14:12:18;12.90;;;7.70;;
37943;SDS011;23767;42.024;23.086;2023-07-24T14:14:43;10.38;;;6.68;;